Terminal Aerodrome Forecast
Issued by NWS Portland, OR

Home | Current Version | Previous Version | Text Only | Print | Product List | Glossary On
Versions: 1 2 3 4 5 6 7 8 9 10 11 12 13 14 15 16 17 18 19 20 21 22 23 24 25 26 27 28 29 30 31 32
000
FTUS46 KPQR 311918 AAA
TAFHIO
TAF AMD
KHIO 311918Z 3119/0118 15005KT P6SM -RA BKN009 OVC015
     FM010100 28003KT P6SM VCSH SCT035 BKN060
     FM011000 20004KT 4SM BR BKN020 BKN050=

USA.gov is the U.S. government's official web portal to all federal, state and local government web resources and services.